Domov               UVHVVR             MKGP            O straneh              
ZDRAVSTVENO VARSTVO RASTLIN
  MREŽA AGROMET. POSTAJ
 ► PROGNOSTIČNA OBVESTILA
AGROMETEOROLOŠKI PODATKI -
ARSO
OBVLADOVANJE TVEGANJ ZARADI
NEUGODNIH VREMENSKIH RAZMER
  ► NARAVNE NESREČE
  ► SUŠA/MOČA
  ► NAMAKANJE
  ► ŽLED (gozdarstvo)
KARTOGRAFSKI PRIKAZI
SPLETNE POVEZAVE
PROJEKTI IN PUBLIKACIJE

AGROMETEOROLOŠKA MREŽA: VREMENSKE POSTAJE IN FENOLOŠKA OPAZOVANJA

Pregled podatkov za lokacijo Selnica ob Dravi, meteorološka postaja 49160

Pregled senzorjev na lokaciji

ID Ime Zadnja
vrednost
Datum
zadnje
spremembe
Tip
senzorja
3696 Temperatura 2 m (°C) 6,4 °C 18.1.2018 20:00 50YA
3697 Relativna vlaga 2 m (% RH) 47,01 % RH 18.1.2018 20:00 50YA
3698 Omočenost lista (U) 0 U 18.1.2018 20:00 A730WET
3699 Sončno sevanje (W/m2) 0,49 W/m2 18.1.2018 20:00 Pyranometer SP-Lite
3700 Temperatura tal 5 cm (°C) 2,58 °C 18.1.2018 20:00 99TG411E
3701 Hitrost vetra (km/h) 6,92 km/h 18.1.2018 20:00 566.2S-176 (200km/h)
3702 Smer vetra (°) 256,88 ° 18.1.2018 20:00 566.2S-130
3703 Padavine (mm) 0 mm 18.1.2018 20:00 Rain-O-Matic

Pregled podatkov zadnjih 24 ur

Zap.
št.
Datum in čas Selnica ob Dravi
Hitrost
vetra
Omočenost
lista
Padavine Relativna
vlaga
2
m
Smer
vetra
Sončno
sevanje
Temperatura
2
m
Temperatura
tal
5
cm
0 18.1.2018 20:00 6,92 0 0 47,01 256,88 0,49 6,4 2,58
1 18.1.2018 19:30 8,09 0 0 44,11 192,15 0,46 6,71 2,6
2 18.1.2018 19:00 13,73 0 0 42,38 270,46 0,43 7,02 2,61
3 18.1.2018 18:30 12,52 0 0 41,67 273,04 0,46 7 2,58
4 18.1.2018 18:00 6,71 0 0 44,62 260,44 0,4 6,07 2,5
5 18.1.2018 17:30 3,94 0 0 50,69 253,67 0,46 4,77 2,47
6 18.1.2018 17:00 4,17 0 0 48,83 302,28 3,17 5,14 2,46
7 18.1.2018 16:30 2,6 0 0 40,25 352,84 10,1 6,71 2,53
8 18.1.2018 16:00 4,59 0 0 34,69 258,34 15,56 8,13 2,57
9 18.1.2018 15:30 5,11 0 0 36,66 198,04 19,75 8,45 2,58
10 18.1.2018 15:00 6,74 0 0 39,77 305,2 162,17 8,43 2,66
11 18.1.2018 14:30 4,36 0 0 46,47 318,64 244,48 7,69 2,73
12 18.1.2018 14:00 5,22 0 0 50,6 37,73 257,69 7 2,7
13 18.1.2018 13:30 4,33 0 0 55,55 55,5 227,33 6,19 2,64
14 18.1.2018 13:00 4,52 0 0 57,97 35,99 301 5,61 2,67
15 18.1.2018 12:30 3,61 0 0 61,64 108,32 208,96 4,96 2,63
16 18.1.2018 12:00 2,94 0 0 63,95 70,03 225,31 4,71 2,61
17 18.1.2018 11:30 2,76 0 0 68,92 214,26 150,85 3,62 2,53
18 18.1.2018 11:00 3,01 0 0 68,69 181,62 178,44 3,49 2,58
19 18.1.2018 10:30 3 0 0 71,34 135,48 136,87 2,82 2,57
20 18.1.2018 10:00 2,34 0 0 68,53 231,21 250,68 3,12 2,67
21 18.1.2018 09:30 3,29 0 0 80,28 148,49 199,56 0,92 2,6
22 18.1.2018 09:00 2,95 1 0 88,59 181,96 119,45 -0,93 2,38
23 18.1.2018 08:30 2,03 0 0 88,1 307,99 13,12 -2,15 2,31
24 18.1.2018 08:00 4,82 0 0 87,94 223,37 7,08 -2 2,31
25 18.1.2018 07:30 4,34 0 0 86,2 297,27 1,31 -1,79 2,33
26 18.1.2018 07:00 4,18 0 0 80,57 255,69 0,4 -0,97 2,36
27 18.1.2018 06:30 3,7 0 0 76,51 247,02 0,4 -0,68 2,4
28 18.1.2018 06:00 3,79 0 0 73,74 258,54 0,43 0,05 2,43
29 18.1.2018 05:30 4,16 0 0 72,12 177,93 0,43 0,65 2,48
30 18.1.2018 05:00 4,01 0 0 73,47 259,22 0,37 0,47 2,5
31 18.1.2018 04:30 3,19 0 0 77,98 274,37 0,46 -0,15 2,5
32 18.1.2018 04:00 3,16 0 0 76,74 213,94 0,43 0,24 2,57
33 18.1.2018 03:30 4,46 0 0 71,58 240,06 0,4 1,21 2,62
34 18.1.2018 03:00 5,31 0 0 74,25 213,58 0,46 0,97 2,61
35 18.1.2018 02:30 5,42 0 0 72,52 194,27 0,43 1,37 2,68
36 18.1.2018 02:00 10,18 0 0 69,43 244,96 0,46 1,91 2,73
37 18.1.2018 01:30 12,89 0 0 66,42 284,82 0,46 2,15 2,74
38 18.1.2018 01:00 10,49 0 0 62,01 291,64 2,06 2,76
39 18.1.2018 00:30 8,12 0 0 61,24 282,54 1,86 2,78
40 18.1.2018 00:00 7,99 0 0 60,4 304,77 1,9 2,81
41 17.1.2018 23:30 11,26 0 0 58,22 286,1 2,34 2,87
42 17.1.2018 23:00 6,34 0 0 61,32 251,07 0,93 2,81
43 17.1.2018 22:30 5,04 0 0 68,28 215,77 -0,39 2,81
44 17.1.2018 22:00 4,61 0 0 60,42 285,35 0,48 2,85
45 17.1.2018 21:30 3,51 0 0 63,07 231,74 -0,11 2,84
46 17.1.2018 21:00 3,06 0 0 58,76 307,06 0,45 2,89
47 17.1.2018 20:30 3,28 0 0 54,56 242,31 1,01 2,91
© 2011 Ministrstvo za kmetijstvo, gozdarstvo in prehrano. Vse pravice pridržane.